createdAt,value
2023-05-09T00:01:08.422Z,55.90
2023-05-09T00:03:38.637Z,55.96
2023-05-09T00:06:09.517Z,55.89
2023-05-09T00:08:41.198Z,55.88
2023-05-09T00:11:11.628Z,55.83
2023-05-09T00:13:43.894Z,55.77
2023-05-09T00:16:14.309Z,55.73
2023-05-09T00:18:44.729Z,55.74
2023-05-09T00:21:15.912Z,55.79
2023-05-09T00:23:46.857Z,55.78
2023-05-09T00:26:17.514Z,55.86
2023-05-09T00:28:47.932Z,55.86
2023-05-09T00:31:18.409Z,55.90
2023-05-09T00:33:49.749Z,56.01
2023-05-09T00:36:20.416Z,56.00
2023-05-09T00:38:50.986Z,56.14
2023-05-09T00:41:21.639Z,56.25
2023-05-09T00:43:51.994Z,56.20
2023-05-09T00:46:24.271Z,56.28
2023-05-09T00:48:55.025Z,56.32
2023-05-09T00:51:25.754Z,56.40
2023-05-09T00:53:56.468Z,56.33
2023-05-09T00:56:26.825Z,56.39
2023-05-09T00:58:58.121Z,56.60
2023-05-09T01:01:29.008Z,56.54
2023-05-09T01:03:59.832Z,56.62
2023-05-09T01:06:39.418Z,56.47
2023-05-09T01:09:18.454Z,56.71
2023-05-09T01:11:56.416Z,56.77
2023-05-09T01:14:42.593Z,56.95
2023-05-09T01:17:17.375Z,57.01
2023-05-09T01:20:06.198Z,57.11
2023-05-09T01:22:38.674Z,57.06
2023-05-09T01:25:19.940Z,57.21
2023-05-09T01:27:58.408Z,57.21
2023-05-09T01:30:30.323Z,57.24
2023-05-09T01:33:01.938Z,57.45
2023-05-09T01:35:33.856Z,57.41
2023-05-09T01:38:05.815Z,57.21
2023-05-09T01:40:36.934Z,57.37
2023-05-09T01:43:09.825Z,57.36
2023-05-09T01:45:41.181Z,57.43
2023-05-09T01:48:12.908Z,57.41
2023-05-09T01:50:45.463Z,57.54
2023-05-09T01:53:16.101Z,57.47
2023-05-09T01:55:47.311Z,57.43
2023-05-09T01:58:17.815Z,57.50
2023-05-09T02:00:49.687Z,57.15
2023-05-09T02:03:20.914Z,57.24
2023-05-09T02:05:52.302Z,57.15
2023-05-09T02:08:24.259Z,56.92
2023-05-09T02:10:54.799Z,56.69
2023-05-09T02:13:25.259Z,56.55
2023-05-09T02:15:56.870Z,56.40
2023-05-09T02:18:29.657Z,56.47
2023-05-09T02:21:00.689Z,56.48
2023-05-09T02:23:31.727Z,56.35
2023-05-09T02:26:03.157Z,56.31
2023-05-09T02:28:33.422Z,56.24
2023-05-09T02:31:06.635Z,56.03
2023-05-09T02:33:38.359Z,55.60
2023-05-09T02:36:11.300Z,55.43
2023-05-09T02:38:42.472Z,55.29
2023-05-09T02:41:15.764Z,55.09
2023-05-09T02:43:47.002Z,54.82
2023-05-09T02:46:17.578Z,54.13
2023-05-09T02:48:47.826Z,52.90
2023-05-09T02:51:19.099Z,52.24
2023-05-09T02:53:49.259Z,51.78
2023-05-09T02:56:19.836Z,51.23
2023-05-09T02:58:51.093Z,51.16
2023-05-09T03:01:23.504Z,51.07
2023-05-09T03:03:54.512Z,51.04
2023-05-09T03:06:25.192Z,50.98
2023-05-09T03:08:55.730Z,50.77
2023-05-09T03:11:25.903Z,50.50
2023-05-09T03:13:57.451Z,50.29
2023-05-09T03:16:27.892Z,49.92
2023-05-09T03:18:58.319Z,49.60
2023-05-09T03:21:28.822Z,48.94
2023-05-09T03:23:59.864Z,47.75
2023-05-09T03:26:30.087Z,47.18
2023-05-09T03:29:00.586Z,46.19
2023-05-09T03:31:31.598Z,46.16
2023-05-09T03:34:01.885Z,45.79
2023-05-09T03:36:32.939Z,46.04
2023-05-09T03:39:03.421Z,46.42
2023-05-09T03:41:35.885Z,46.76
2023-05-09T03:44:07.323Z,47.29
2023-05-09T03:46:37.632Z,47.44
2023-05-09T03:49:08.078Z,47.53
2023-05-09T03:51:39.978Z,47.85
2023-05-09T03:54:12.238Z,48.11
2023-05-09T03:56:42.814Z,48.04
2023-05-09T03:59:13.793Z,47.81
2023-05-09T04:01:44.986Z,47.72
2023-05-09T04:04:15.476Z,47.53
2023-05-09T04:06:46.307Z,47.24
2023-05-09T04:09:16.569Z,46.82
2023-05-09T04:11:47.024Z,46.35
2023-05-09T04:14:18.070Z,45.75
2023-05-09T04:16:48.390Z,45.11
2023-05-09T04:19:18.641Z,44.60
2023-05-09T04:21:48.862Z,44.16
2023-05-09T04:24:19.115Z,43.45
2023-05-09T04:26:49.521Z,43.13
2023-05-09T04:29:20.067Z,41.43
2023-05-09T04:31:50.791Z,38.40
2023-05-09T04:34:21.186Z,35.73
2023-05-09T04:36:52.206Z,34.77
2023-05-09T04:39:23.510Z,33.95
2023-05-09T04:41:55.014Z,32.24
2023-05-09T04:44:26.626Z,30.75
2023-05-09T04:46:57.903Z,29.51
2023-05-09T04:49:28.671Z,26.94
2023-05-09T04:51:59.049Z,25.10
2023-05-09T04:54:29.489Z,22.91
2023-05-09T04:57:09.923Z,21.10
2023-05-09T04:59:47.240Z,19.69
2023-05-09T05:02:17.569Z,18.23
2023-05-09T05:04:47.907Z,16.76
2023-05-09T05:07:18.750Z,15.90
2023-05-09T05:09:49.240Z,15.61
2023-05-09T05:12:19.977Z,14.23
2023-05-09T05:14:50.365Z,13.66
2023-05-09T05:17:20.590Z,13.01
2023-05-09T05:19:51.735Z,12.32
2023-05-09T05:22:22.919Z,11.61
2023-05-09T05:24:53.463Z,10.72
2023-05-09T05:27:23.801Z,10.13
2023-05-09T05:29:57.109Z,10.88
2023-05-09T05:32:28.212Z,10.95
2023-05-09T05:34:58.639Z,11.06
2023-05-09T05:37:28.971Z,10.57
2023-05-09T05:39:59.664Z,10.19
2023-05-09T05:42:29.923Z,9.65
2023-05-09T05:45:04.179Z,9.60
2023-05-09T05:47:35.077Z,9.30
2023-05-09T05:50:08.670Z,9.14
2023-05-09T05:52:39.238Z,8.72
2023-05-09T05:55:10.689Z,8.44
2023-05-09T05:57:41.154Z,8.29
2023-05-09T06:00:15.151Z,8.04
2023-05-09T06:02:45.813Z,7.50
2023-05-09T06:05:16.693Z,7.21
2023-05-09T06:07:47.806Z,7.06
2023-05-09T06:10:18.450Z,6.81
2023-05-09T06:12:49.326Z,6.43
2023-05-09T06:15:19.824Z,6.62
2023-05-09T06:17:50.852Z,6.94
2023-05-09T06:20:22.473Z,7.06
2023-05-09T06:22:53.513Z,7.51
2023-05-09T06:25:24.486Z,7.94
2023-05-09T06:27:55.553Z,7.83
2023-05-09T06:30:26.989Z,8.01
2023-05-09T06:32:58.586Z,7.70
2023-05-09T06:35:32.618Z,7.53
2023-05-09T06:38:02.943Z,7.47
2023-05-09T06:40:33.430Z,7.53
2023-05-09T06:43:04.524Z,7.39
2023-05-09T06:45:35.086Z,6.99
2023-05-09T06:48:08.067Z,6.87
2023-05-09T06:50:38.863Z,7.36
2023-05-09T06:53:09.798Z,7.36
2023-05-09T06:55:46.385Z,7.46
2023-05-09T06:58:17.074Z,7.27
2023-05-09T07:00:49.461Z,7.37
2023-05-09T07:03:19.902Z,7.38
2023-05-09T07:05:52.380Z,7.89
2023-05-09T07:08:22.638Z,8.68
2023-05-09T07:10:52.950Z,9.90
2023-05-09T07:13:23.418Z,10.98
2023-05-09T07:15:55.811Z,12.21
2023-05-09T07:18:29.515Z,13.68
2023-05-09T07:21:02.481Z,14.71
2023-05-09T07:23:32.702Z,15.77
2023-05-09T07:26:03.232Z,16.94
2023-05-09T07:28:34.064Z,17.85
2023-05-09T07:31:05.672Z,18.50
2023-05-09T07:33:36.120Z,19.08
2023-05-09T07:36:08.128Z,19.36
2023-05-09T07:38:39.897Z,19.76
2023-05-09T07:41:12.340Z,20.04
2023-05-09T07:43:44.345Z,20.15
2023-05-09T07:46:15.476Z,20.41
2023-05-09T07:48:57.339Z,20.67
2023-05-09T07:51:28.259Z,20.75
2023-05-09T07:54:04.485Z,20.93
2023-05-09T07:56:41.242Z,21.23
2023-05-09T07:59:12.728Z,21.62
2023-05-09T08:01:43.048Z,21.58
2023-05-09T08:04:13.924Z,21.49
2023-05-09T08:06:44.408Z,21.45
2023-05-09T08:09:14.830Z,21.78
2023-05-09T08:11:45.028Z,21.62
2023-05-09T08:14:17.418Z,21.54
2023-05-09T08:16:47.827Z,21.50
2023-05-09T08:19:20.777Z,21.99
2023-05-09T08:21:51.357Z,22.38
2023-05-09T08:24:22.123Z,22.59
2023-05-09T08:26:52.401Z,22.79
2023-05-09T08:29:23.495Z,22.97
2023-05-09T08:31:54.210Z,23.12
2023-05-09T08:34:26.182Z,23.25
2023-05-09T08:36:59.400Z,23.67
2023-05-09T08:39:30.078Z,24.19
2023-05-09T08:42:01.663Z,24.19
2023-05-09T08:44:32.512Z,24.50
2023-05-09T08:47:05.560Z,24.54
2023-05-09T08:49:37.510Z,24.75
2023-05-09T08:52:11.882Z,25.09
2023-05-09T08:54:42.801Z,25.46
2023-05-09T08:57:13.053Z,25.70
2023-05-09T08:59:45.309Z,25.69
2023-05-09T09:02:16.344Z,25.48
2023-05-09T09:04:48.491Z,25.31
2023-05-09T09:07:20.861Z,25.32
2023-05-09T09:10:03.498Z,25.40
2023-05-09T09:12:35.279Z,25.26
2023-05-09T09:15:08.101Z,24.84
2023-05-09T09:17:43.725Z,24.66
2023-05-09T09:20:16.651Z,24.40
2023-05-09T09:22:49.912Z,24.40
2023-05-09T09:25:20.756Z,24.59
2023-05-09T09:27:52.219Z,24.61
2023-05-09T09:30:26.311Z,24.67
2023-05-09T09:32:56.988Z,24.80
2023-05-09T09:35:28.273Z,25.08
2023-05-09T09:38:03.006Z,25.05
2023-05-09T09:40:34.286Z,24.77
2023-05-09T09:43:08.094Z,24.70
2023-05-09T09:45:41.219Z,24.67
2023-05-09T09:48:14.246Z,24.77
2023-05-09T09:50:46.983Z,24.36
2023-05-09T09:53:17.372Z,24.32
2023-05-09T09:55:57.258Z,24.41
2023-05-09T09:58:36.607Z,24.32
2023-05-09T10:01:10.038Z,23.61
2023-05-09T10:03:41.863Z,23.32
2023-05-09T10:06:14.869Z,23.22
2023-05-09T10:08:47.246Z,22.63
2023-05-09T10:11:18.340Z,22.79
2023-05-09T10:13:48.623Z,22.43
2023-05-09T10:16:25.816Z,22.23
2023-05-09T10:19:02.447Z,21.85
2023-05-09T10:21:32.851Z,22.20
2023-05-09T10:24:05.638Z,22.18
2023-05-09T10:26:39.095Z,22.15
2023-05-09T10:29:12.299Z,22.35
2023-05-09T10:31:43.857Z,22.47
2023-05-09T10:34:14.773Z,23.07
2023-05-09T10:36:45.593Z,23.40
2023-05-09T10:39:16.728Z,23.45
2023-05-09T10:41:49.599Z,23.77
2023-05-09T10:44:20.642Z,24.04
2023-05-09T10:46:51.201Z,24.00
2023-05-09T10:49:22.197Z,24.42
2023-05-09T10:51:53.021Z,24.61
2023-05-09T10:54:33.066Z,24.53
2023-05-09T10:57:05.578Z,24.64
2023-05-09T10:59:37.894Z,24.44
2023-05-09T11:02:14.363Z,24.49
2023-05-09T11:04:46.447Z,24.37
2023-05-09T11:07:29.962Z,24.39
2023-05-09T11:10:13.667Z,24.20
2023-05-09T11:13:00.627Z,23.89
2023-05-09T11:15:31.905Z,24.19
2023-05-09T11:18:10.809Z,24.08
2023-05-09T11:20:46.143Z,24.21
2023-05-09T11:23:17.644Z,24.60
2023-05-09T11:25:49.433Z,24.89
2023-05-09T11:28:29.538Z,24.67
2023-05-09T11:31:11.777Z,24.96
2023-05-09T11:33:43.525Z,25.18
2023-05-09T11:36:25.081Z,25.14
2023-05-09T11:39:07.835Z,25.12
2023-05-09T11:41:46.959Z,24.87
2023-05-09T11:44:21.230Z,24.70
2023-05-09T11:46:51.961Z,24.77
2023-05-09T11:49:25.094Z,24.72
2023-05-09T11:51:57.080Z,24.64
2023-05-09T11:54:27.581Z,24.77
2023-05-09T11:56:59.723Z,25.29
2023-05-09T11:59:30.057Z,25.38
2023-05-09T12:02:05.777Z,25.51
2023-05-09T12:04:39.540Z,25.69
2023-05-09T12:07:13.145Z,25.52
2023-05-09T12:09:44.524Z,25.57
2023-05-09T12:12:20.531Z,25.64
2023-05-09T12:14:51.966Z,25.73
2023-05-09T12:17:22.912Z,25.98
2023-05-09T12:19:54.050Z,26.31
2023-05-09T12:22:29.671Z,26.55
2023-05-09T12:25:02.403Z,26.67
2023-05-09T12:27:33.419Z,26.97
2023-05-09T12:30:08.242Z,27.12
2023-05-09T12:32:39.842Z,27.50
2023-05-09T12:35:11.550Z,27.67
2023-05-09T12:37:58.287Z,27.71
2023-05-09T12:40:31.159Z,28.04
2023-05-09T12:43:04.100Z,28.34
2023-05-09T12:45:39.134Z,28.01
2023-05-09T12:48:11.726Z,27.81
2023-05-09T12:50:47.604Z,27.54
2023-05-09T12:53:25.479Z,27.12
2023-05-09T12:56:03.408Z,26.52
2023-05-09T12:58:33.949Z,25.86
2023-05-09T13:01:05.853Z,25.83
2023-05-09T13:03:38.254Z,25.31
2023-05-09T13:06:14.738Z,24.85
2023-05-09T13:08:46.040Z,24.39
2023-05-09T13:11:18.957Z,24.06
2023-05-09T13:13:49.165Z,23.68
2023-05-09T13:16:19.494Z,23.72
2023-05-09T13:18:49.998Z,23.49
2023-05-09T13:21:20.695Z,23.49
2023-05-09T13:23:52.196Z,23.32
2023-05-09T13:26:22.720Z,23.26
2023-05-09T13:28:55.015Z,23.15
2023-05-09T13:31:28.685Z,22.84
2023-05-09T13:34:00.305Z,22.73
2023-05-09T13:36:31.498Z,22.67
2023-05-09T13:39:01.856Z,22.60
2023-05-09T13:41:34.504Z,22.72
2023-05-09T13:44:06.377Z,22.65
2023-05-09T13:46:37.378Z,22.81
2023-05-09T13:49:10.313Z,23.06
2023-05-09T13:51:40.744Z,23.02
2023-05-09T13:54:12.845Z,22.99
2023-05-09T13:56:43.368Z,23.35
2023-05-09T13:59:13.657Z,23.76
2023-05-09T14:01:43.881Z,23.84
2023-05-09T14:04:16.618Z,23.84
2023-05-09T14:06:48.336Z,23.93
2023-05-09T14:09:22.268Z,24.40
2023-05-09T14:11:52.956Z,24.85
2023-05-09T14:14:24.210Z,25.24
2023-05-09T14:16:54.674Z,25.42
2023-05-09T14:19:26.750Z,25.73
2023-05-09T14:21:57.163Z,25.89
2023-05-09T14:24:30.857Z,25.96
2023-05-09T14:27:01.414Z,26.28
2023-05-09T14:29:31.996Z,26.54
2023-05-09T14:32:02.502Z,26.32
2023-05-09T14:34:33.100Z,26.49
2023-05-09T14:37:03.490Z,26.62
2023-05-09T14:39:33.680Z,26.62
2023-05-09T14:42:05.661Z,26.77
2023-05-09T14:44:36.356Z,27.10
2023-05-09T14:47:10.008Z,27.31
2023-05-09T14:49:41.114Z,27.76
2023-05-09T14:52:11.814Z,28.20
2023-05-09T14:54:42.867Z,28.64
2023-05-09T14:57:20.853Z,28.85
2023-05-09T14:59:51.213Z,29.16
2023-05-09T15:02:21.556Z,29.19
2023-05-09T15:04:51.956Z,29.29
2023-05-09T15:07:22.384Z,29.41
2023-05-09T15:09:52.604Z,29.53
2023-05-09T15:12:23.318Z,29.81
2023-05-09T15:14:55.561Z,29.91
2023-05-09T15:17:26.679Z,29.80
2023-05-09T15:19:58.999Z,30.14
2023-05-09T15:22:33.781Z,30.59
2023-05-09T15:25:06.213Z,30.55
2023-05-09T15:27:36.985Z,30.59
2023-05-09T15:30:08.946Z,30.91
2023-05-09T15:32:42.623Z,30.89
2023-05-09T15:35:14.205Z,30.87
2023-05-09T15:37:45.965Z,31.03
2023-05-09T15:40:17.295Z,31.18
2023-05-09T15:42:48.875Z,31.38
2023-05-09T15:45:19.908Z,31.61
2023-05-09T15:47:50.181Z,32.13
2023-05-09T15:50:21.074Z,32.40
2023-05-09T15:52:52.736Z,33.25
2023-05-09T15:55:23.298Z,33.97
2023-05-09T15:57:53.725Z,34.83
2023-05-09T16:00:28.019Z,35.32
2023-05-09T16:03:02.172Z,35.68
2023-05-09T16:05:32.713Z,36.27
2023-05-09T16:08:03.081Z,36.55
2023-05-09T16:10:34.423Z,37.14
2023-05-09T16:13:04.915Z,37.61
2023-05-09T16:15:35.809Z,37.96
2023-05-09T16:18:07.891Z,38.44
2023-05-09T16:20:39.232Z,38.75
2023-05-09T16:23:10.467Z,39.11
2023-05-09T16:25:41.424Z,39.59
2023-05-09T16:28:16.685Z,39.86
2023-05-09T16:30:48.979Z,40.35
2023-05-09T16:33:19.902Z,40.83
2023-05-09T16:35:53.697Z,41.09
2023-05-09T16:38:24.406Z,41.11
2023-05-09T16:40:55.559Z,41.44
2023-05-09T16:43:27.174Z,41.49
2023-05-09T16:45:59.998Z,41.79
2023-05-09T16:48:34.117Z,42.00
2023-05-09T16:51:08.886Z,42.35
2023-05-09T16:53:39.496Z,42.42
2023-05-09T16:56:10.865Z,42.41
2023-05-09T16:58:41.610Z,42.49
2023-05-09T17:01:11.936Z,42.73
2023-05-09T17:03:44.223Z,43.08
2023-05-09T17:06:15.781Z,43.58
2023-05-09T17:08:47.031Z,43.73
2023-05-09T17:11:17.692Z,44.19
2023-05-09T17:13:51.390Z,44.32
2023-05-09T17:16:25.661Z,44.21
2023-05-09T17:18:56.093Z,44.65
2023-05-09T17:21:28.922Z,44.86
2023-05-09T17:23:59.428Z,44.82
2023-05-09T17:26:30.323Z,45.22
2023-05-09T17:29:00.758Z,45.32
2023-05-09T17:31:31.808Z,45.71
2023-05-09T17:34:02.036Z,46.01
2023-05-09T17:36:34.575Z,46.28
2023-05-09T17:39:07.465Z,46.39
2023-05-09T17:41:38.165Z,46.93
2023-05-09T17:44:08.508Z,46.80
2023-05-09T17:46:39.035Z,47.23
2023-05-09T17:49:14.205Z,47.41
2023-05-09T17:51:45.132Z,47.79
2023-05-09T17:54:15.625Z,48.15
2023-05-09T17:56:46.334Z,48.00
2023-05-09T17:59:16.528Z,48.44
2023-05-09T18:01:46.795Z,48.54
2023-05-09T18:04:19.039Z,48.83
2023-05-09T18:06:50.637Z,48.86
2023-05-09T18:09:23.798Z,48.99
2023-05-09T18:12:00.172Z,48.95
2023-05-09T18:14:30.553Z,49.02
2023-05-09T18:17:03.072Z,48.94
2023-05-09T18:19:35.509Z,49.10
2023-05-09T18:22:07.007Z,49.15
2023-05-09T18:24:37.831Z,49.17
2023-05-09T18:27:08.452Z,49.35
2023-05-09T18:29:45.298Z,49.45
2023-05-09T18:32:16.056Z,49.44
2023-05-09T18:34:50.236Z,49.42
2023-05-09T18:37:22.831Z,49.53
2023-05-09T18:39:55.380Z,49.77
2023-05-09T18:42:26.964Z,49.74
2023-05-09T18:44:57.558Z,49.92
2023-05-09T18:47:28.743Z,50.06
2023-05-09T18:50:02.347Z,50.20
2023-05-09T18:52:34.008Z,50.21
2023-05-09T18:55:08.299Z,50.23
2023-05-09T18:57:42.139Z,50.01
2023-05-09T19:00:16.255Z,49.91
2023-05-09T19:02:46.948Z,50.11
2023-05-09T19:05:17.349Z,49.90
2023-05-09T19:07:47.692Z,49.84
2023-05-09T19:10:20.790Z,49.83
2023-05-09T19:12:51.315Z,49.81
2023-05-09T19:15:23.157Z,49.76
2023-05-09T19:17:55.756Z,49.71
2023-05-09T19:20:30.523Z,49.58
2023-05-09T19:23:02.366Z,49.53
2023-05-09T19:25:33.510Z,49.29
2023-05-09T19:28:03.997Z,49.10
2023-05-09T19:30:35.737Z,49.22
2023-05-09T19:33:06.379Z,49.64
2023-05-09T19:35:38.026Z,49.52
2023-05-09T19:38:11.630Z,49.48
2023-05-09T19:40:42.213Z,48.95
2023-05-09T19:43:15.617Z,48.60
2023-05-09T19:45:46.194Z,48.43
2023-05-09T19:48:16.871Z,48.39
2023-05-09T19:50:48.073Z,48.06
2023-05-09T19:53:18.343Z,48.13
2023-05-09T19:55:48.657Z,47.91
2023-05-09T19:58:19.034Z,47.98
2023-05-09T20:00:51.264Z,48.18
2023-05-09T20:03:21.601Z,48.12
2023-05-09T20:05:55.143Z,48.08
2023-05-09T20:08:25.801Z,48.22
2023-05-09T20:10:57.021Z,48.44
2023-05-09T20:13:27.294Z,48.64
2023-05-09T20:15:58.718Z,48.94
2023-05-09T20:18:29.266Z,49.11
2023-05-09T20:20:59.396Z,49.21
2023-05-09T20:23:31.785Z,49.22
2023-05-09T20:26:02.546Z,49.37
2023-05-09T20:28:33.430Z,49.30
2023-05-09T20:31:03.607Z,49.42
2023-05-09T20:33:35.094Z,49.64
2023-05-09T20:36:09.008Z,49.58
2023-05-09T20:38:39.670Z,49.59
2023-05-09T20:41:10.161Z,49.83
2023-05-09T20:43:40.339Z,50.14
2023-05-09T20:46:10.794Z,50.49
2023-05-09T20:48:40.952Z,50.54
2023-05-09T20:51:11.450Z,50.96
2023-05-09T20:53:41.908Z,50.87
2023-05-09T20:56:12.010Z,50.93
2023-05-09T20:58:42.415Z,51.12
2023-05-09T21:01:12.912Z,51.36
2023-05-09T21:03:43.515Z,51.61
2023-05-09T21:06:13.750Z,51.96
2023-05-09T21:08:44.979Z,51.87
2023-05-09T21:11:17.418Z,51.97
2023-05-09T21:13:47.678Z,52.09
2023-05-09T21:16:17.972Z,52.09
2023-05-09T21:18:48.311Z,52.11
2023-05-09T21:21:18.917Z,52.19
2023-05-09T21:23:50.009Z,51.94
2023-05-09T21:26:21.126Z,52.29
2023-05-09T21:28:51.527Z,52.20
2023-05-09T21:31:21.896Z,52.34
2023-05-09T21:33:52.444Z,52.55
2023-05-09T21:36:22.832Z,52.61
2023-05-09T21:38:52.835Z,52.67
2023-05-09T21:41:23.815Z,52.95
2023-05-09T21:43:54.420Z,52.79
2023-05-09T21:46:25.309Z,52.96
2023-05-09T21:48:55.494Z,53.13
2023-05-09T21:51:25.642Z,53.01
2023-05-09T21:53:56.135Z,53.37
2023-05-09T21:56:26.316Z,53.59
2023-05-09T21:58:57.341Z,53.68
2023-05-09T22:01:31.103Z,53.81
2023-05-09T22:04:02.392Z,53.97
2023-05-09T22:06:32.617Z,54.11
2023-05-09T22:09:03.018Z,54.16
2023-05-09T22:11:33.263Z,54.35
2023-05-09T22:14:03.444Z,54.29
2023-05-09T22:16:33.972Z,54.30
2023-05-09T22:19:04.590Z,54.57
2023-05-09T22:21:34.689Z,54.64
2023-05-09T22:24:06.808Z,54.70
2023-05-09T22:26:37.142Z,54.83
2023-05-09T22:29:07.364Z,54.82
2023-05-09T22:31:38.774Z,54.93
2023-05-09T22:34:09.027Z,55.14
2023-05-09T22:36:39.264Z,55.29
2023-05-09T22:39:09.436Z,55.47
2023-05-09T22:41:39.934Z,55.30
2023-05-09T22:44:10.135Z,55.44
2023-05-09T22:46:40.392Z,55.37
2023-05-09T22:49:10.747Z,55.42
2023-05-09T22:51:41.090Z,55.56
2023-05-09T22:54:11.451Z,55.71
2023-05-09T22:56:42.828Z,55.87
2023-05-09T22:59:14.259Z,55.94
2023-05-09T23:01:44.661Z,56.00
2023-05-09T23:04:16.318Z,56.23
2023-05-09T23:06:49.790Z,56.19
2023-05-09T23:09:20.806Z,56.29
2023-05-09T23:11:51.462Z,56.43
2023-05-09T23:14:21.949Z,56.66
2023-05-09T23:16:52.447Z,56.61
2023-05-09T23:19:22.938Z,56.54
2023-05-09T23:21:53.661Z,57.09
2023-05-09T23:24:23.898Z,57.05
2023-05-09T23:26:55.441Z,57.26
2023-05-09T23:29:26.122Z,57.29
2023-05-09T23:31:56.425Z,57.54
2023-05-09T23:34:26.734Z,57.45
2023-05-09T23:36:57.023Z,57.61
2023-05-09T23:39:27.551Z,57.76
2023-05-09T23:41:58.252Z,57.64
2023-05-09T23:44:28.569Z,57.84
2023-05-09T23:46:58.949Z,57.93
2023-05-09T23:49:29.529Z,57.75
2023-05-09T23:51:59.791Z,58.02
2023-05-09T23:54:30.382Z,57.97
2023-05-09T23:57:00.816Z,58.05
2023-05-09T23:59:31.222Z,58.16
